Time;durP1;ratioP1;P1;durP2;ratioP2;P2;SDS_P1;SDS_P2;PMS_P1;PMS_P2;Temp;Humidity;BMP_temperature;BMP_pressure;BME280_temperature;BME280_humidity;BME280_pressure;Samples;Min_cycle;Max_cycle;Signal;HPM_P1;HPM_P2
2023/07/10 00:01:25;;;;;;;18.80;12.45;;;18.60;99.90;;;;;;5109556;28;20040;-75
2023/07/10 00:03:51;;;;;;;16.52;12.38;;;18.60;99.90;;;;;;5109944;28;20410;-75
2023/07/10 00:06:17;;;;;;;22.50;12.82;;;18.50;99.90;;;;;;5092605;28;20593;-76
2023/07/10 00:08:43;;;;;;;19.65;12.82;;;18.50;99.90;;;;;;5109686;28;20118;-75
2023/07/10 00:11:28;;;;;;;21.50;13.65;;;18.50;99.90;;;;;;5109423;28;20131;-76
2023/07/10 00:13:55;;;;;;;26.20;15.38;;;18.50;99.90;;;;;;5109925;28;20396;-75
2023/07/10 00:16:22;;;;;;;29.35;15.52;;;18.50;99.90;;;;;;5109882;28;20064;-77
2023/07/10 00:18:49;;;;;;;25.75;14.70;;;18.50;99.90;;;;;;5092916;28;20465;-77
2023/07/10 00:21:15;;;;;;;26.67;15.77;;;18.50;99.90;;;;;;5109397;28;20043;-77
2023/07/10 00:23:41;;;;;;;33.38;16.52;;;18.50;99.90;;;;;;5075786;28;20485;-76
2023/07/10 00:26:19;;;;;;;28.17;16.33;;;18.50;99.90;;;;;;5075701;28;20119;-76
2023/07/10 00:28:46;;;;;;;30.30;16.45;;;18.50;99.90;;;;;;5092183;28;20127;-77
2023/07/10 00:31:13;;;;;;;31.33;16.35;;;18.50;99.90;;;;;;5109813;28;20523;-77
2023/07/10 00:33:38;;;;;;;31.42;17.13;;;18.50;99.90;;;;;;5092776;28;20047;-77
2023/07/10 00:36:35;;;;;;;27.98;15.82;;;18.50;99.90;;;;;;5110822;28;20485;-76
2023/07/10 00:39:29;;;;;;;33.25;16.23;;;18.50;99.90;;;;;;5088196;28;20085;-77
2023/07/10 00:42:10;;;;;;;33.00;17.73;;;18.50;99.90;;;;;;5110621;28;20074;-77
2023/07/10 00:44:41;;;;;;;33.10;15.52;;;18.40;99.90;;;;;;5113544;28;20044;-77
2023/07/10 00:47:34;;;;;;;29.60;16.98;;;18.40;99.90;;;;;;5113441;28;20036;-76
2023/07/10 00:50:23;;;;;;;35.83;16.80;;;18.40;99.90;;;;;;5096420;28;20078;-76
2023/07/10 00:52:50;;;;;;;30.30;16.27;;;18.40;99.90;;;;;;5095683;28;20046;-77
2023/07/10 00:55:23;;;;;;;31.45;17.00;;;18.40;99.90;;;;;;5113337;28;20219;-76
2023/07/10 00:58:11;;;;;;;29.25;15.57;;;18.40;99.90;;;;;;5112833;28;20075;-76
2023/07/10 01:00:36;;;;;;;27.33;16.05;;;18.40;99.90;;;;;;5113015;28;20055;-76
2023/07/10 01:03:02;;;;;;;33.63;16.55;;;18.40;99.90;;;;;;5113176;28;20066;-76
2023/07/10 01:05:31;;;;;;;26.95;16.13;;;18.30;99.90;;;;;;5079358;28;20393;-76
2023/07/10 01:07:59;;;;;;;34.47;16.75;;;18.40;99.90;;;;;;5112917;28;20047;-76
2023/07/10 01:10:25;;;;;;;35.17;15.73;;;18.30;99.90;;;;;;5113116;28;20116;-76
2023/07/10 01:12:51;;;;;;;38.88;15.75;;;18.30;99.90;;;;;;5112710;28;20489;-76
2023/07/10 01:15:18;;;;;;;26.95;14.77;;;18.30;99.90;;;;;;5096172;28;20044;-77
2023/07/10 01:17:46;;;;;;;27.75;16.90;;;18.30;99.90;;;;;;5112704;28;20043;-76
2023/07/10 01:20:19;;;;;;;36.63;16.10;;;18.30;99.90;;;;;;5113127;28;20401;-76
2023/07/10 01:22:45;;;;;;;25.17;15.85;;;18.30;99.90;;;;;;5112503;28;20119;-76
2023/07/10 01:25:11;;;;;;;30.77;15.15;;;18.30;99.90;;;;;;5078972;28;20508;-76
2023/07/10 01:27:36;;;;;;;25.45;14.82;;;18.30;99.90;;;;;;5095565;28;20040;-76
2023/07/10 01:30:26;;;;;;;43.03;16.70;;;18.30;99.90;;;;;;5095622;28;20036;-77
2023/07/10 01:32:54;;;;;;;28.55;16.20;;;18.30;99.90;;;;;;5112337;28;20043;-76
2023/07/10 01:35:20;;;;;;;25.02;14.80;;;18.30;99.90;;;;;;5095222;28;20123;-76
2023/07/10 01:37:46;;;;;;;26.02;16.23;;;18.20;99.90;;;;;;5112421;28;20062;-76
2023/07/10 01:40:17;;;;;;;24.13;15.90;;;18.30;99.90;;;;;;5095433;28;20480;-76
2023/07/10 01:42:43;;;;;;;26.65;15.50;;;18.20;99.90;;;;;;5112072;28;20496;-76
2023/07/10 01:45:13;;;;;;;29.90;15.35;;;18.20;99.90;;;;;;5095049;28;20043;-76
2023/07/10 01:47:39;;;;;;;33.10;14.93;;;18.20;99.90;;;;;;5094352;28;20035;-76
2023/07/10 01:50:05;;;;;;;28.48;15.27;;;18.20;99.90;;;;;;5112077;28;20104;-76
2023/07/10 01:52:31;;;;;;;25.48;14.75;;;18.10;99.90;;;;;;5112090;28;20040;-76
2023/07/10 01:54:56;;;;;;;28.75;15.85;;;18.20;99.90;;;;;;5111866;28;20043;-75
2023/07/10 01:57:23;;;;;;;24.88;14.73;;;18.10;99.90;;;;;;5094776;28;20088;-76
2023/07/10 01:59:50;;;;;;;29.27;15.82;;;18.20;99.90;;;;;;5111515;28;20048;-76
2023/07/10 02:02:16;;;;;;;29.83;15.88;;;18.10;99.90;;;;;;5094614;28;20075;-76
2023/07/10 02:04:42;;;;;;;30.20;16.08;;;18.20;99.90;;;;;;5112016;28;20074;-76
2023/07/10 02:07:07;;;;;;;26.30;16.08;;;18.20;99.90;;;;;;5094775;28;20519;-76
2023/07/10 02:09:33;;;;;;;37.88;16.48;;;18.10;99.90;;;;;;5111514;28;20051;-76
2023/07/10 02:11:59;;;;;;;23.02;15.23;;;18.20;99.90;;;;;;5111514;28;20039;-76
2023/07/10 02:14:26;;;;;;;26.95;16.13;;;18.20;99.90;;;;;;5094343;28;20127;-76
2023/07/10 02:16:52;;;;;;;27.83;16.23;;;18.20;99.90;;;;;;5111288;28;20504;-76
2023/07/10 02:19:21;;;;;;;27.67;15.85;;;18.10;99.90;;;;;;5094512;28;20043;-76
2023/07/10 02:21:48;;;;;;;29.23;16.77;;;18.20;99.90;;;;;;5094470;28;20496;-75
2023/07/10 02:24:13;;;;;;;32.72;17.23;;;18.20;99.90;;;;;;5111179;28;20040;-76
2023/07/10 02:26:39;;;;;;;26.27;16.27;;;18.20;99.90;;;;;;5111502;28;20046;-76
2023/07/10 02:29:05;;;;;;;27.90;17.10;;;18.20;99.90;;;;;;5077126;28;20032;-76
2023/07/10 02:31:31;;;;;;;30.40;17.20;;;18.20;99.90;;;;;;5094177;28;20035;-76
2023/07/10 02:33:57;;;;;;;33.40;16.92;;;18.20;99.90;;;;;;5094146;28;20131;-75
2023/07/10 02:36:25;;;;;;;28.70;17.83;;;18.20;99.90;;;;;;5094591;28;20040;-75
2023/07/10 02:38:50;;;;;;;28.20;16.92;;;18.20;99.90;;;;;;5110959;28;20054;-76
2023/07/10 02:41:16;;;;;;;33.22;18.10;;;18.10;99.90;;;;;;5094208;28;20048;-76
2023/07/10 02:43:42;;;;;;;31.83;19.00;;;18.20;99.90;;;;;;5111247;28;20031;-76
2023/07/10 02:46:07;;;;;;;32.15;17.75;;;18.20;99.90;;;;;;5094278;28;20097;-76
2023/07/10 02:48:33;;;;;;;34.03;18.55;;;18.20;99.90;;;;;;5111698;28;20040;-76
2023/07/10 02:51:00;;;;;;;34.38;19.30;;;18.20;99.90;;;;;;5077749;28;20058;-77
2023/07/10 02:53:26;;;;;;;33.58;18.48;;;18.20;99.90;;;;;;5111283;28;20055;-76
2023/07/10 02:55:52;;;;;;;31.83;17.98;;;18.20;99.90;;;;;;5094784;28;20047;-77
2023/07/10 02:58:18;;;;;;;33.22;19.33;;;18.20;99.90;;;;;;5110572;28;20043;-76
2023/07/10 03:00:53;;;;;;;32.42;18.92;;;18.20;99.90;;;;;;5093023;28;20501;-75
2023/07/10 03:03:19;;;;;;;32.03;17.48;;;18.20;99.90;;;;;;5110967;28;20038;-76
2023/07/10 03:06:02;;;;;;;36.00;19.08;;;18.20;99.90;;;;;;5076779;28;20039;-76
2023/07/10 03:08:28;;;;;;;37.80;19.67;;;18.20;99.90;;;;;;5093393;28;20048;-75
2023/07/10 03:11:14;;;;;;;36.92;20.35;;;18.10;99.90;;;;;;5093472;28;20042;-76
2023/07/10 03:13:40;;;;;;;30.45;17.98;;;18.10;99.90;;;;;;5110413;28;20047;-75
2023/07/10 03:16:14;;;;;;;31.45;18.20;;;18.20;99.90;;;;;;5110269;28;20047;-76
2023/07/10 03:18:40;;;;;;;38.70;19.83;;;18.20;99.90;;;;;;5110211;28;20050;-75
2023/07/10 03:21:07;;;;;;;38.05;19.63;;;18.20;99.90;;;;;;5093027;28;20035;-76
2023/07/10 03:23:33;;;;;;;38.17;20.10;;;18.20;99.90;;;;;;5093457;28;20435;-76
2023/07/10 03:25:59;;;;;;;47.20;22.00;;;18.20;99.90;;;;;;5110034;28;20035;-76
2023/07/10 03:28:25;;;;;;;41.70;21.35;;;18.20;99.90;;;;;;5092755;28;20047;-76
2023/07/10 03:30:51;;;;;;;43.78;21.38;;;18.20;99.90;;;;;;5075904;28;20453;-76
2023/07/10 03:33:17;;;;;;;46.58;21.35;;;18.20;99.90;;;;;;5059336;28;20047;-76
2023/07/10 03:35:48;;;;;;;51.13;23.15;;;18.20;99.90;;;;;;5093213;28;20100;-76
2023/07/10 03:38:15;;;;;;;42.05;21.73;;;18.20;99.90;;;;;;5093314;28;20175;-76
2023/07/10 03:40:50;;;;;;;42.22;21.50;;;18.20;99.90;;;;;;5109946;28;20151;-76
2023/07/10 03:43:15;;;;;;;42.42;22.33;;;18.20;99.90;;;;;;5093004;28;20052;-76
2023/07/10 03:45:41;;;;;;;40.85;21.42;;;18.20;99.90;;;;;;5092522;28;20035;-76
2023/07/10 03:48:07;;;;;;;45.42;22.55;;;18.20;99.90;;;;;;5092573;28;20039;-76
2023/07/10 03:50:34;;;;;;;38.08;21.90;;;18.20;99.90;;;;;;5109519;28;20100;-76
2023/07/10 03:53:00;;;;;;;42.50;21.80;;;18.20;99.90;;;;;;5109685;28;20524;-76
2023/07/10 03:55:26;;;;;;;45.63;22.88;;;18.20;99.90;;;;;;5093141;28;20078;-77
2023/07/10 03:57:51;;;;;;;39.97;20.83;;;18.20;99.90;;;;;;5110071;28;20130;-76
2023/07/10 04:00:17;;;;;;;42.45;21.77;;;18.20;99.90;;;;;;5109228;28;20051;-76
2023/07/10 04:02:43;;;;;;;44.17;21.92;;;18.20;99.90;;;;;;5092395;28;20036;-76
2023/07/10 04:05:09;;;;;;;47.88;22.85;;;18.20;99.90;;;;;;5075558;28;20046;-76
2023/07/10 04:07:34;;;;;;;43.40;22.88;;;18.10;99.90;;;;;;5092429;28;20043;-76
2023/07/10 04:10:00;;;;;;;40.40;21.65;;;18.10;99.90;;;;;;5091836;28;20077;-76
2023/07/10 04:12:26;;;;;;;42.53;23.05;;;18.20;99.90;;;;;;5092324;28;20096;-76
2023/07/10 04:14:52;;;;;;;41.90;22.38;;;18.10;99.90;;;;;;5092686;28;20043;-77
2023/07/10 04:17:17;;;;;;;36.95;21.70;;;18.10;99.90;;;;;;5108679;28;20504;-77
2023/07/10 04:19:44;;;;;;;38.92;22.70;;;18.20;99.90;;;;;;5109337;28;20044;-76
2023/07/10 04:22:10;;;;;;;37.08;22.55;;;18.10;99.90;;;;;;5092336;28;20031;-76
2023/07/10 04:24:36;;;;;;;35.70;22.40;;;18.10;99.90;;;;;;5076039;28;20252;-76
2023/07/10 04:27:02;;;;;;;37.38;22.58;;;18.10;99.90;;;;;;5110587;28;20039;-76
2023/07/10 04:29:27;;;;;;;39.03;21.75;;;18.10;99.90;;;;;;5076405;28;20087;-76
2023/07/10 04:31:53;;;;;;;39.67;21.55;;;18.10;99.90;;;;;;5076916;28;20039;-77
2023/07/10 04:34:19;;;;;;;40.97;22.95;;;18.10;99.90;;;;;;5093354;28;20050;-77
2023/07/10 04:36:45;;;;;;;43.88;21.98;;;18.10;99.90;;;;;;5092201;28;20465;-76
2023/07/10 04:39:10;;;;;;;40.17;23.05;;;18.10;99.90;;;;;;5092345;28;20039;-77
2023/07/10 04:41:37;;;;;;;40.28;22.95;;;18.10;99.90;;;;;;5092302;28;20046;-77
2023/07/10 04:44:04;;;;;;;39.90;21.85;;;18.10;99.90;;;;;;5109572;28;20370;-77
2023/07/10 04:46:30;;;;;;;41.95;22.85;;;18.10;99.90;;;;;;5109462;28;20039;-77
2023/07/10 04:48:56;;;;;;;47.63;22.25;;;18.10;99.90;;;;;;5093547;28;20147;-77
2023/07/10 04:51:22;;;;;;;41.92;21.95;;;18.10;99.90;;;;;;5110804;28;20077;-76
2023/07/10 04:53:48;;;;;;;36.67;20.63;;;18.10;99.90;;;;;;5111672;28;20040;-77
2023/07/10 04:56:16;;;;;;;35.47;20.85;;;18.10;99.90;;;;;;5094232;28;20075;-77
2023/07/10 04:58:54;;;;;;;40.50;21.50;;;18.10;99.90;;;;;;5094877;28;20055;-77
2023/07/10 05:01:22;;;;;;;44.28;21.55;;;18.10;99.90;;;;;;5112223;28;20044;-77
2023/07/10 05:03:49;;;;;;;35.53;19.40;;;18.10;99.90;;;;;;5112408;28;20039;-76
2023/07/10 05:06:15;;;;;;;33.50;19.30;;;18.20;99.90;;;;;;5093454;28;20493;-76
2023/07/10 05:08:41;;;;;;;34.75;19.73;;;18.10;99.90;;;;;;5112561;28;20048;-77
2023/07/10 05:11:07;;;;;;;31.67;18.90;;;18.20;99.90;;;;;;5112805;28;20134;-77
2023/07/10 05:13:33;;;;;;;29.70;19.33;;;18.10;99.90;;;;;;5112905;28;20058;-77
2023/07/10 05:16:00;;;;;;;30.65;19.38;;;18.10;99.90;;;;;;5112808;28;20042;-76
2023/07/10 05:18:26;;;;;;;32.08;19.38;;;18.10;99.90;;;;;;5113235;28;20488;-76
2023/07/10 05:20:53;;;;;;;32.00;21.17;;;18.20;99.90;;;;;;5075322;28;20123;-77
2023/07/10 05:23:19;;;;;;;32.35;20.35;;;18.20;99.90;;;;;;5110351;28;20036;-76
2023/07/10 05:26:05;;;;;;;30.55;20.15;;;18.20;99.90;;;;;;5095700;28;20061;-76
2023/07/10 05:28:31;;;;;;;31.95;20.15;;;18.20;99.90;;;;;;5112059;28;20512;-77
2023/07/10 05:30:59;;;;;;;35.03;21.27;;;18.20;99.90;;;;;;5112806;28;20046;-76
2023/07/10 05:33:25;;;;;;;38.28;20.60;;;18.20;99.90;;;;;;5112454;28;20130;-76
2023/07/10 05:35:56;;;;;;;34.80;19.55;;;18.20;99.90;;;;;;5096662;28;20043;-77
2023/07/10 05:38:24;;;;;;;29.48;19.23;;;18.20;99.90;;;;;;5079001;28;20073;-78
2023/07/10 05:40:50;;;;;;;32.97;19.80;;;18.20;99.90;;;;;;5112700;28;20130;-78
2023/07/10 05:43:16;;;;;;;35.53;19.35;;;18.10;99.90;;;;;;5112176;28;20560;-77
2023/07/10 05:45:41;;;;;;;27.45;18.35;;;18.10;99.90;;;;;;5095234;28;20115;-77
2023/07/10 05:48:08;;;;;;;30.02;17.75;;;18.10;99.90;;;;;;5078553;28;20103;-77
2023/07/10 05:50:33;;;;;;;31.55;16.55;;;18.10;99.90;;;;;;5078309;28;20047;-77
2023/07/10 05:52:59;;;;;;;25.00;17.15;;;18.10;99.90;;;;;;5078112;28;20035;-77
2023/07/10 05:55:25;;;;;;;25.02;15.02;;;18.10;99.90;;;;;;5112369;28;20043;-76
2023/07/10 05:57:51;;;;;;;23.65;14.90;;;18.10;99.90;;;;;;5111532;28;20421;-77
2023/07/10 06:00:17;;;;;;;25.02;14.82;;;18.10;99.90;;;;;;5094674;28;20048;-76
2023/07/10 06:02:42;;;;;;;22.08;12.98;;;18.20;99.90;;;;;;5111812;28;20073;-75
2023/07/10 06:05:08;;;;;;;22.77;12.45;;;18.10;99.90;;;;;;5077891;28;20472;-76
2023/07/10 06:07:34;;;;;;;21.02;10.90;;;18.10;99.90;;;;;;5061403;28;20039;-76
2023/07/10 06:09:59;;;;;;;14.43;9.90;;;18.20;99.90;;;;;;5095015;28;20082;-75
2023/07/10 06:12:25;;;;;;;13.10;9.13;;;18.20;99.90;;;;;;5094615;28;20400;-76
2023/07/10 06:14:51;;;;;;;11.57;8.35;;;18.20;99.90;;;;;;5145877;27;20116;-76
2023/07/10 06:17:17;;;;;;;15.80;9.35;;;18.10;99.90;;;;;;5094627;28;20465;-75
2023/07/10 06:19:42;;;;;;;12.35;6.78;;;18.10;99.90;;;;;;5145722;27;20043;-75
2023/07/10 06:22:11;;;;;;;10.73;6.90;;;18.20;99.90;;;;;;5146286;27;20035;-75
2023/07/10 06:24:38;;;;;;;12.13;6.15;;;18.10;99.90;;;;;;5145617;27;20047;-75
2023/07/10 06:27:05;;;;;;;11.93;6.15;;;18.20;99.90;;;;;;5145888;27;20126;-74
2023/07/10 06:29:34;;;;;;;10.55;6.10;;;18.10;99.90;;;;;;5094118;28;20057;-75
2023/07/10 06:32:00;;;;;;;10.95;6.35;;;18.10;99.90;;;;;;5077637;28;20416;-75
2023/07/10 06:34:27;;;;;;;13.02;6.60;;;18.10;99.90;;;;;;5112029;28;20111;-75
2023/07/10 06:36:53;;;;;;;9.40;5.60;;;18.10;99.90;;;;;;5128306;27;20564;-75
2023/07/10 06:39:19;;;;;;;8.15;4.35;;;18.00;99.90;;;;;;5111043;27;20044;-75
2023/07/10 06:41:44;;;;;;;11.00;4.78;;;18.10;99.90;;;;;;5111058;28;20047;-75
2023/07/10 06:44:10;;;;;;;7.68;4.63;;;18.10;99.90;;;;;;5093742;28;20078;-75
2023/07/10 06:46:36;;;;;;;6.65;4.07;;;18.10;99.90;;;;;;5093977;28;20040;-75
2023/07/10 06:49:02;;;;;;;9.63;4.30;;;18.10;99.90;;;;;;5128204;27;20111;-75
2023/07/10 06:51:27;;;;;;;6.65;4.85;;;18.00;99.90;;;;;;5094028;28;20558;-75
2023/07/10 06:53:53;;;;;;;9.10;3.95;;;18.00;99.90;;;;;;5111026;28;20036;-75
2023/07/10 06:56:19;;;;;;;8.32;4.18;;;18.00;99.90;;;;;;5127733;27;20555;-75
2023/07/10 06:58:44;;;;;;;6.82;4.95;;;18.10;99.90;;;;;;5110213;27;20090;-75
2023/07/10 07:01:10;;;;;;;8.95;5.30;;;18.20;99.90;;;;;;5094039;28;20036;-75
2023/07/10 07:03:36;;;;;;;8.07;4.72;;;18.30;99.90;;;;;;5093569;28;20485;-75
2023/07/10 07:06:05;;;;;;;9.30;4.85;;;18.40;99.90;;;;;;5145380;27;20047;-75
2023/07/10 07:08:31;;;;;;;7.28;4.43;;;18.50;99.90;;;;;;5093130;28;20043;-76
2023/07/10 07:10:57;;;;;;;6.10;4.05;;;18.50;99.90;;;;;;5110652;28;20035;-76
2023/07/10 07:13:23;;;;;;;7.78;4.15;;;18.50;99.90;;;;;;5093515;28;20392;-75
2023/07/10 07:15:53;;;;;;;7.35;4.60;;;18.50;99.90;;;;;;5145161;27;20527;-75
2023/07/10 07:18:21;;;;;;;7.65;3.88;;;18.50;99.90;;;;;;5144446;27;20488;-75
2023/07/10 07:20:48;;;;;;;7.95;3.88;;;18.50;99.90;;;;;;5093366;28;20070;-74
2023/07/10 07:23:14;;;;;;;7.93;3.92;;;18.60;99.90;;;;;;5144898;27;20043;-75
2023/07/10 07:25:43;;;;;;;6.50;3.80;;;18.70;99.90;;;;;;5144342;27;20039;-74
2023/07/10 07:28:09;;;;;;;10.13;4.35;;;18.60;99.90;;;;;;5093929;28;20164;-74
2023/07/10 07:30:35;;;;;;;5.97;3.83;;;18.60;99.90;;;;;;5093286;28;20518;-74
2023/07/10 07:33:01;;;;;;;6.07;3.60;;;18.60;99.90;;;;;;5076620;28;20036;-74
2023/07/10 07:35:27;;;;;;;9.68;3.78;;;18.60;99.90;;;;;;5144944;27;20047;-75
2023/07/10 07:37:53;;;;;;;6.38;3.90;;;18.80;99.90;;;;;;5144245;27;20043;-74
2023/07/10 07:40:19;;;;;;;8.77;4.10;;;18.90;99.90;;;;;;5109797;28;20062;-74
2023/07/10 07:42:48;;;;;;;7.18;3.80;;;19.10;99.90;;;;;;5127015;27;20484;-74
2023/07/10 07:45:15;;;;;;;8.02;3.90;;;19.20;99.90;;;;;;5092185;28;20057;-74
2023/07/10 07:47:41;;;;;;;8.15;3.40;;;19.20;99.90;;;;;;5144417;27;20385;-74
2023/07/10 07:50:10;;;;;;;7.03;3.47;;;19.30;99.90;;;;;;5092597;28;20044;-74
2023/07/10 07:52:36;;;;;;;9.25;3.67;;;19.40;99.90;;;;;;5144445;27;20091;-74
2023/07/10 07:55:03;;;;;;;6.65;3.55;;;19.50;99.90;;;;;;5092576;28;20043;-74
2023/07/10 07:57:28;;;;;;;9.20;3.45;;;19.60;99.90;;;;;;5075772;28;20126;-74
2023/07/10 07:59:54;;;;;;;5.68;3.00;;;19.70;99.90;;;;;;5143441;27;20169;-74
2023/07/10 08:02:20;;;;;;;6.70;2.97;;;19.80;99.90;;;;;;5092641;28;20038;-74
2023/07/10 08:04:46;;;;;;;7.22;2.90;;;19.90;99.90;;;;;;5092427;28;20036;-74
2023/07/10 08:07:11;;;;;;;6.00;2.50;;;20.00;99.90;;;;;;5143969;27;20036;-74
2023/07/10 08:09:37;;;;;;;5.78;3.42;;;20.10;99.90;;;;;;5109243;28;20130;-74
2023/07/10 08:12:03;;;;;;;8.13;2.80;;;20.20;99.90;;;;;;5126946;28;20039;-74
2023/07/10 08:14:29;;;;;;;8.75;2.78;;;20.30;99.90;;;;;;5092200;28;20043;-74
2023/07/10 08:16:55;;;;;;;5.97;2.60;;;20.30;99.90;;;;;;5126462;28;20036;-74
2023/07/10 08:19:21;;;;;;;6.82;3.10;;;20.40;99.90;;;;;;5143513;27;20039;-75
2023/07/10 08:21:47;;;;;;;7.25;3.08;;;20.60;99.90;;;;;;5126637;27;20074;-75
2023/07/10 08:24:13;;;;;;;5.00;2.83;;;20.70;99.90;;;;;;5143933;27;20089;-74
2023/07/10 08:26:39;;;;;;;6.85;2.30;;;20.80;99.90;;;;;;5143580;27;20039;-73
2023/07/10 08:29:34;;;;;;;8.05;2.60;;;20.80;99.90;;;;;;5092317;28;20047;-75
2023/07/10 08:32:01;;;;;;;3.53;2.45;;;20.80;99.90;;;;;;5144029;27;20492;-74
2023/07/10 08:34:29;;;;;;;5.63;2.63;;;21.00;99.90;;;;;;5126738;28;20100;-75
2023/07/10 08:36:55;;;;;;;9.13;2.97;;;21.00;99.90;;;;;;5109081;28;20034;-74
2023/07/10 08:39:22;;;;;;;5.32;2.40;;;21.00;99.90;;;;;;5092265;28;20071;-74
2023/07/10 08:41:56;;;;;;;8.60;2.17;;;21.10;99.90;;;;;;5109337;28;20044;-75
2023/07/10 08:44:36;;;;;;;7.50;2.83;;;21.10;99.90;;;;;;5143497;27;20056;-74
2023/07/10 08:47:14;;;;;;;6.28;2.95;;;21.20;99.90;;;;;;5143399;27;20036;-75
2023/07/10 08:49:45;;;;;;;4.82;2.00;;;21.20;99.90;;;;;;5143516;27;20513;-75
2023/07/10 08:52:13;;;;;;;5.82;2.17;;;21.20;99.90;;;;;;5143675;27;20039;-74
2023/07/10 08:54:40;;;;;;;6.50;2.50;;;21.30;99.90;;;;;;5143375;27;20492;-74
2023/07/10 08:57:17;;;;;;;8.65;2.40;;;21.50;99.90;;;;;;5144887;27;20094;-74
2023/07/10 09:00:04;;;;;;;7.90;2.30;;;21.60;99.90;;;;;;5147197;27;20381;-75
2023/07/10 09:03:03;;;;;;;7.25;2.92;;;21.70;99.90;;;;;;5147376;27;20055;-75
2023/07/10 09:05:30;;;;;;;5.88;2.50;;;21.80;99.90;;;;;;5096102;28;20039;-74
2023/07/10 09:08:04;;;;;;;4.80;2.55;;;22.00;99.90;;;;;;5079152;28;20047;-75
2023/07/10 09:10:41;;;;;;;9.35;2.70;;;22.00;99.90;;;;;;5147359;27;20128;-75
2023/07/10 09:13:13;;;;;;;8.82;2.70;;;21.90;99.90;;;;;;5112969;28;20044;-75
2023/07/10 09:15:51;;;;;;;6.15;2.63;;;21.90;99.90;;;;;;5147113;27;20036;-75
2023/07/10 09:18:23;;;;;;;7.30;2.10;;;21.70;99.90;;;;;;5147049;27;20040;-74
2023/07/10 09:20:52;;;;;;;5.13;2.50;;;21.60;99.90;;;;;;5095299;28;20477;-74
2023/07/10 09:23:36;;;;;;;6.88;2.50;;;21.50;99.90;;;;;;5147374;27;20070;-75
2023/07/10 09:26:19;;;;;;;8.68;2.78;;;21.40;99.90;;;;;;5095776;28;20028;-75
2023/07/10 09:29:14;;;;;;;6.90;3.53;;;21.50;99.90;;;;;;5146918;27;20792;-74
2023/07/10 09:31:54;;;;;;;6.13;2.38;;;21.50;99.90;;;;;;5146778;27;20086;-75
2023/07/10 09:34:23;;;;;;;6.53;2.67;;;21.70;99.90;;;;;;5146917;27;20046;-75
2023/07/10 09:36:51;;;;;;;6.63;3.03;;;21.80;99.90;;;;;;5095374;28;20472;-74
2023/07/10 09:39:17;;;;;;;6.40;2.60;;;22.00;99.90;;;;;;5078671;28;20093;-74
2023/07/10 09:41:43;;;;;;;5.78;2.47;;;22.10;99.90;;;;;;5095058;28;20040;-74
2023/07/10 09:44:20;;;;;;;8.65;2.20;;;22.20;99.90;;;;;;5146892;27;20520;-74
2023/07/10 09:46:47;;;;;;;10.68;2.47;;;22.40;99.90;;;;;;5146578;27;20412;-74
2023/07/10 09:49:20;;;;;;;5.13;2.55;;;22.60;99.90;;;;;;5095475;28;20043;-74
2023/07/10 09:52:03;;;;;;;4.35;1.80;;;22.80;99.90;;;;;;5146612;27;20075;-74
2023/07/10 09:54:38;;;;;;;6.20;2.50;;;22.80;99.90;;;;;;5146333;27;20544;-75
2023/07/10 09:57:12;;;;;;;6.75;2.53;;;22.70;99.90;;;;;;5146352;27;20388;-74
2023/07/10 09:59:38;;;;;;;7.35;2.45;;;22.50;99.90;;;;;;5145792;27;20504;-75
2023/07/10 10:02:38;;;;;;;4.38;2.38;;;22.50;99.90;;;;;;5146208;27;20210;-75
2023/07/10 10:05:10;;;;;;;4.53;2.33;;;22.60;99.90;;;;;;5092157;28;20155;-75
2023/07/10 10:07:38;;;;;;;6.65;2.95;;;22.70;99.90;;;;;;5094907;28;20396;-76
2023/07/10 10:10:26;;;;;;;8.50;2.30;;;22.90;99.90;;;;;;5145374;27;20054;-74
2023/07/10 10:13:16;;;;;;;9.50;3.05;;;23.00;99.90;;;;;;5145895;27;20066;-75
2023/07/10 10:15:49;;;;;;;7.65;2.47;;;23.20;99.90;;;;;;5111539;28;20501;-76
2023/07/10 10:18:39;;;;;;;7.75;2.53;;;23.40;99.90;;;;;;5094200;28;20040;-75
2023/07/10 10:21:05;;;;;;;9.80;3.53;;;23.50;99.90;;;;;;5126187;27;20044;-76
2023/07/10 10:23:37;;;;;;;6.80;2.88;;;23.70;99.90;;;;;;5094488;28;20093;-75
2023/07/10 10:26:30;;;;;;;6.60;2.43;;;23.80;99.90;;;;;;5146071;27;20039;-75
2023/07/10 10:29:09;;;;;;;5.28;2.50;;;23.90;99.90;;;;;;5145597;27;20043;-74
2023/07/10 10:31:42;;;;;;;7.53;2.80;;;23.90;99.90;;;;;;5145615;27;20485;-74
2023/07/10 10:34:32;;;;;;;7.75;2.65;;;24.10;99.90;;;;;;5094554;28;20050;-74
2023/07/10 10:37:26;;;;;;;11.00;2.72;;;24.20;99.90;;;;;;5094007;28;20085;-75
2023/07/10 10:40:36;;;;;;;5.35;2.80;;;24.20;99.90;;;;;;5094307;28;20074;-74
2023/07/10 10:43:44;;;;;;;6.03;2.83;;;24.30;99.90;;;;;;5145619;27;20396;-74
2023/07/10 10:46:51;;;;;;;7.78;2.60;;;24.50;99.90;;;;;;5052302;28;20449;-75
2023/07/10 10:49:29;;;;;;;5.93;2.30;;;24.60;99.90;;;;;;5085714;28;20109;-75
2023/07/10 10:52:03;;;;;;;5.38;2.10;;;24.60;99.90;;;;;;5101783;28;20560;-74
2023/07/10 10:54:46;;;;;;;8.55;2.90;;;24.60;99.90;;;;;;5093873;28;20035;-74
2023/07/10 10:57:17;;;;;;;8.13;3.13;;;24.60;99.90;;;;;;5093692;28;20518;-75
2023/07/10 11:00:14;;;;;;;4.75;2.13;;;24.70;99.90;;;;;;5144732;27;20139;-74
2023/07/10 11:03:02;;;;;;;8.65;2.90;;;24.80;99.90;;;;;;5110910;28;20031;-74
2023/07/10 11:05:43;;;;;;;10.25;2.85;;;24.70;99.90;;;;;;5094024;28;20296;-75
2023/07/10 11:08:25;;;;;;;5.88;2.30;;;24.50;99.90;;;;;;5144970;27;20079;-75
2023/07/10 11:10:53;;;;;;;6.60;2.60;;;24.30;99.90;;;;;;5093795;28;20129;-75
2023/07/10 11:13:35;;;;;;;7.13;2.40;;;24.10;99.90;;;;;;5093467;28;20048;-74
2023/07/10 11:16:03;;;;;;;11.30;2.67;;;24.10;99.90;;;;;;5145142;27;20047;-74
2023/07/10 11:18:29;;;;;;;8.93;2.75;;;24.00;99.90;;;;;;5144653;27;20092;-74
2023/07/10 11:20:56;;;;;;;4.60;2.25;;;24.20;99.90;;;;;;5143990;27;20036;-75
2023/07/10 11:23:40;;;;;;;4.30;1.90;;;24.50;99.90;;;;;;5110835;28;20078;-74
2023/07/10 11:26:15;;;;;;;5.38;2.03;;;24.70;99.90;;;;;;5144840;27;20595;-75
2023/07/10 11:29:00;;;;;;;4.18;1.95;;;24.90;99.90;;;;;;5093453;28;20556;-74
2023/07/10 11:31:40;;;;;;;6.60;2.22;;;25.20;99.90;;;;;;5093478;28;20043;-74
2023/07/10 11:34:06;;;;;;;6.90;2.15;;;25.10;99.90;;;;;;5127490;27;20035;-74
2023/07/10 11:36:38;;;;;;;8.63;2.38;;;25.20;99.90;;;;;;5144558;27;20560;-74
2023/07/10 11:39:09;;;;;;;7.57;2.70;;;25.30;99.90;;;;;;5144136;27;20134;-76
2023/07/10 11:41:36;;;;;;;10.30;2.75;;;25.50;99.90;;;;;;5092969;28;20081;-75
2023/07/10 11:44:20;;;;;;;4.93;1.88;;;25.60;99.90;;;;;;5144572;27;20040;-76
2023/07/10 11:47:04;;;;;;;7.03;2.08;;;25.80;98.90;;;;;;5144544;27;20117;-73
2023/07/10 11:49:52;;;;;;;5.18;1.80;;;25.70;94.80;;;;;;5144061;27;20515;-75
2023/07/10 11:52:17;;;;;;;3.90;2.25;;;25.80;96.70;;;;;;5144296;27;20496;-74
2023/07/10 11:55:00;;;;;;;4.72;2.00;;;25.90;96.70;;;;;;5093045;28;20081;-75
2023/07/10 11:57:32;;;;;;;5.68;1.80;;;26.00;96.10;;;;;;5093044;28;20040;-74
2023/07/10 11:59:59;;;;;;;;;;;26.00;95.80;;;;;;5092549;28;20058;-75
2023/07/10 12:02:38;;;;;;;7.38;2.20;;;25.90;95.10;;;;;;5092833;28;19973;-75
2023/07/10 12:05:16;;;;;;;4.57;1.88;;;25.70;95.10;;;;;;5143975;27;20036;-75
2023/07/10 12:07:53;;;;;;;8.52;1.80;;;25.90;94.10;;;;;;5092859;28;20040;-74
2023/07/10 12:10:23;;;;;;;7.88;2.30;;;25.90;93.10;;;;;;5076002;28;20081;-75
2023/07/10 12:12:50;;;;;;;4.82;1.80;;;25.90;94.70;;;;;;5109698;28;20039;-74
2023/07/10 12:15:17;;;;;;;4.32;1.80;;;25.90;94.10;;;;;;5143834;27;20040;-74
2023/07/10 12:17:43;;;;;;;6.10;1.90;;;25.50;93.50;;;;;;5093026;28;20048;-74
2023/07/10 12:20:20;;;;;;;7.80;2.08;;;25.40;94.50;;;;;;5143489;27;20492;-75
2023/07/10 12:22:45;;;;;;;5.63;2.00;;;25.40;94.00;;;;;;5092838;28;20388;-74
2023/07/10 12:25:14;;;;;;;5.57;1.90;;;25.50;94.90;;;;;;5092222;28;20041;-75
2023/07/10 12:27:41;;;;;;;4.05;2.10;;;25.60;94.60;;;;;;5109402;28;20523;-75
2023/07/10 12:30:16;;;;;;;7.32;2.00;;;25.70;94.00;;;;;;5143471;27;20039;-74
2023/07/10 12:32:42;;;;;;;3.20;1.50;;;25.80;93.10;;;;;;5146302;27;20043;-74
2023/07/10 12:35:14;;;;;;;6.10;1.88;;;26.00;94.70;;;;;;5096827;28;20126;-75
2023/07/10 12:37:44;;;;;;;5.80;1.85;;;25.90;94.70;;;;;;5147844;27;20044;-74
2023/07/10 12:40:17;;;;;;;4.68;1.75;;;25.80;94.30;;;;;;5113162;28;20569;-75
2023/07/10 12:42:45;;;;;;;4.82;1.40;;;25.60;93.70;;;;;;5113572;28;20079;-75
2023/07/10 12:45:17;;;;;;;4.50;2.10;;;25.50;93.00;;;;;;5096237;28;20080;-75
2023/07/10 12:47:53;;;;;;;5.07;2.03;;;25.20;92.50;;;;;;5148109;27;20043;-75
2023/07/10 12:50:20;;;;;;;5.68;2.13;;;25.00;94.00;;;;;;5147851;27;20044;-74
2023/07/10 12:52:46;;;;;;;8.38;1.88;;;24.90;93.20;;;;;;5096388;28;20054;-75